sensor_id;sensor_type;location;lat;lon;timestamp;temperature;humidity
26707;DHT22;14319;49.422;10.934;2023-06-14T00:01:50;17.00;52.00
26707;DHT22;14319;49.422;10.934;2023-06-14T00:03:51;16.90;52.80
26707;DHT22;14319;49.422;10.934;2023-06-14T00:05:52;16.90;52.90
26707;DHT22;14319;49.422;10.934;2023-06-14T00:07:53;16.70;52.60
26707;DHT22;14319;49.422;10.934;2023-06-14T00:09:53;16.70;53.00
26707;DHT22;14319;49.422;10.934;2023-06-14T00:11:54;16.70;53.50
26707;DHT22;14319;49.422;10.934;2023-06-14T00:13:55;16.70;53.80
26707;DHT22;14319;49.422;10.934;2023-06-14T00:15:56;16.70;54.30
26707;DHT22;14319;49.422;10.934;2023-06-14T00:17:57;16.70;53.80
26707;DHT22;14319;49.422;10.934;2023-06-14T00:20:03;16.70;53.80
26707;DHT22;14319;49.422;10.934;2023-06-14T00:22:05;16.60;54.00
26707;DHT22;14319;49.422;10.934;2023-06-14T00:24:07;16.60;54.30
26707;DHT22;14319;49.422;10.934;2023-06-14T00:26:08;16.70;54.90
26707;DHT22;14319;49.422;10.934;2023-06-14T00:28:09;16.80;55.10
26707;DHT22;14319;49.422;10.934;2023-06-14T00:30:10;17.00;55.40
26707;DHT22;14319;49.422;10.934;2023-06-14T00:32:11;17.00;55.50
26707;DHT22;14319;49.422;10.934;2023-06-14T00:34:11;17.10;54.90
26707;DHT22;14319;49.422;10.934;2023-06-14T00:36:15;17.10;54.70
26707;DHT22;14319;49.422;10.934;2023-06-14T00:38:17;17.10;55.00
26707;DHT22;14319;49.422;10.934;2023-06-14T00:40:17;17.10;55.50
26707;DHT22;14319;49.422;10.934;2023-06-14T00:42:26;17.20;55.40
26707;DHT22;14319;49.422;10.934;2023-06-14T00:44:27;17.20;55.20
26707;DHT22;14319;49.422;10.934;2023-06-14T00:46:27;17.20;55.20
26707;DHT22;14319;49.422;10.934;2023-06-14T00:48:29;17.20;55.30
26707;DHT22;14319;49.422;10.934;2023-06-14T00:50:30;17.30;55.60
26707;DHT22;14319;49.422;10.934;2023-06-14T00:52:33;17.30;55.40
26707;DHT22;14319;49.422;10.934;2023-06-14T00:54:34;17.40;55.00
26707;DHT22;14319;49.422;10.934;2023-06-14T00:56:38;17.20;54.70
26707;DHT22;14319;49.422;10.934;2023-06-14T00:58:39;17.00;55.10
26707;DHT22;14319;49.422;10.934;2023-06-14T01:00:40;17.00;56.00
26707;DHT22;14319;49.422;10.934;2023-06-14T01:02:40;16.60;57.70
26707;DHT22;14319;49.422;10.934;2023-06-14T01:04:45;16.50;58.50
26707;DHT22;14319;49.422;10.934;2023-06-14T01:07:07;16.50;58.50
26707;DHT22;14319;49.422;10.934;2023-06-14T01:09:18;16.40;58.70
26707;DHT22;14319;49.422;10.934;2023-06-14T01:11:28;16.50;58.30
26707;DHT22;14319;49.422;10.934;2023-06-14T01:13:33;16.60;58.10
26707;DHT22;14319;49.422;10.934;2023-06-14T01:15:35;16.60;58.00
26707;DHT22;14319;49.422;10.934;2023-06-14T01:17:36;16.20;57.70
26707;DHT22;14319;49.422;10.934;2023-06-14T01:19:44;14.90;62.60
26707;DHT22;14319;49.422;10.934;2023-06-14T01:21:48;14.50;65.40
26707;DHT22;14319;49.422;10.934;2023-06-14T01:23:54;14.70;64.80
26707;DHT22;14319;49.422;10.934;2023-06-14T01:25:54;14.80;64.30
26707;DHT22;14319;49.422;10.934;2023-06-14T01:27:59;15.00;64.40
26707;DHT22;14319;49.422;10.934;2023-06-14T01:30:00;15.10;63.70
26707;DHT22;14319;49.422;10.934;2023-06-14T01:32:03;15.20;63.10
26707;DHT22;14319;49.422;10.934;2023-06-14T01:34:08;15.10;61.10
26707;DHT22;14319;49.422;10.934;2023-06-14T01:36:09;15.00;62.60
26707;DHT22;14319;49.422;10.934;2023-06-14T01:38:10;15.00;62.60
26707;DHT22;14319;49.422;10.934;2023-06-14T01:40:11;15.10;62.60
26707;DHT22;14319;49.422;10.934;2023-06-14T01:42:13;15.20;62.30
26707;DHT22;14319;49.422;10.934;2023-06-14T01:44:16;15.30;62.00
26707;DHT22;14319;49.422;10.934;2023-06-14T01:46:17;15.30;61.00
26707;DHT22;14319;49.422;10.934;2023-06-14T01:48:21;14.90;61.70
26707;DHT22;14319;49.422;10.934;2023-06-14T01:50:22;14.70;62.30
26707;DHT22;14319;49.422;10.934;2023-06-14T01:52:22;14.50;63.60
26707;DHT22;14319;49.422;10.934;2023-06-14T01:54:24;14.50;63.80
26707;DHT22;14319;49.422;10.934;2023-06-14T01:56:26;14.60;63.70
26707;DHT22;14319;49.422;10.934;2023-06-14T01:58:27;14.80;63.90
26707;DHT22;14319;49.422;10.934;2023-06-14T02:00:28;15.00;63.10
26707;DHT22;14319;49.422;10.934;2023-06-14T02:02:29;15.20;62.70
26707;DHT22;14319;49.422;10.934;2023-06-14T02:04:29;15.30;62.40
26707;DHT22;14319;49.422;10.934;2023-06-14T02:06:30;15.40;62.10
26707;DHT22;14319;49.422;10.934;2023-06-14T02:08:31;15.30;61.40
26707;DHT22;14319;49.422;10.934;2023-06-14T02:10:34;15.30;61.40
26707;DHT22;14319;49.422;10.934;2023-06-14T02:12:35;15.10;61.00
26707;DHT22;14319;49.422;10.934;2023-06-14T02:14:35;15.20;61.70
26707;DHT22;14319;49.422;10.934;2023-06-14T02:16:36;15.20;61.20
26707;DHT22;14319;49.422;10.934;2023-06-14T02:18:36;15.20;62.30
26707;DHT22;14319;49.422;10.934;2023-06-14T02:20:37;15.30;61.60
26707;DHT22;14319;49.422;10.934;2023-06-14T02:22:38;15.30;61.50
26707;DHT22;14319;49.422;10.934;2023-06-14T02:24:41;15.20;61.60
26707;DHT22;14319;49.422;10.934;2023-06-14T02:26:42;15.20;61.70
26707;DHT22;14319;49.422;10.934;2023-06-14T02:28:43;15.20;61.50
26707;DHT22;14319;49.422;10.934;2023-06-14T02:30:46;15.20;62.10
26707;DHT22;14319;49.422;10.934;2023-06-14T02:32:46;15.10;61.90
26707;DHT22;14319;49.422;10.934;2023-06-14T02:34:48;15.20;62.20
26707;DHT22;14319;49.422;10.934;2023-06-14T02:36:50;15.10;61.90
26707;DHT22;14319;49.422;10.934;2023-06-14T02:38:53;15.20;62.10
26707;DHT22;14319;49.422;10.934;2023-06-14T02:40:54;15.10;60.30
26707;DHT22;14319;49.422;10.934;2023-06-14T02:42:55;14.60;61.50
26707;DHT22;14319;49.422;10.934;2023-06-14T02:44:55;14.30;62.50
26707;DHT22;14319;49.422;10.934;2023-06-14T02:46:56;14.30;63.10
26707;DHT22;14319;49.422;10.934;2023-06-14T02:48:56;14.20;63.10
26707;DHT22;14319;49.422;10.934;2023-06-14T02:50:57;14.10;63.50
26707;DHT22;14319;49.422;10.934;2023-06-14T02:52:57;14.10;63.60
26707;DHT22;14319;49.422;10.934;2023-06-14T02:54:58;14.00;64.80
26707;DHT22;14319;49.422;10.934;2023-06-14T02:56:59;14.00;64.40
26707;DHT22;14319;49.422;10.934;2023-06-14T02:59:00;14.00;63.90
26707;DHT22;14319;49.422;10.934;2023-06-14T03:01:01;14.10;64.60
26707;DHT22;14319;49.422;10.934;2023-06-14T03:03:04;14.20;63.10
26707;DHT22;14319;49.422;10.934;2023-06-14T03:05:15;14.30;63.90
26707;DHT22;14319;49.422;10.934;2023-06-14T03:07:16;14.20;62.60
26707;DHT22;14319;49.422;10.934;2023-06-14T03:09:21;14.10;62.80
26707;DHT22;14319;49.422;10.934;2023-06-14T03:11:22;14.00;63.30
26707;DHT22;14319;49.422;10.934;2023-06-14T03:13:23;13.80;64.00
26707;DHT22;14319;49.422;10.934;2023-06-14T03:15:26;13.60;64.50
26707;DHT22;14319;49.422;10.934;2023-06-14T03:17:27;13.70;65.30
26707;DHT22;14319;49.422;10.934;2023-06-14T03:19:30;13.70;64.80
26707;DHT22;14319;49.422;10.934;2023-06-14T03:21:31;14.10;63.20
26707;DHT22;14319;49.422;10.934;2023-06-14T03:23:34;14.30;62.80
26707;DHT22;14319;49.422;10.934;2023-06-14T03:25:36;14.50;62.10
26707;DHT22;14319;49.422;10.934;2023-06-14T03:27:39;14.60;62.50
26707;DHT22;14319;49.422;10.934;2023-06-14T03:29:40;14.60;61.80
26707;DHT22;14319;49.422;10.934;2023-06-14T03:31:59;14.70;61.90
26707;DHT22;14319;49.422;10.934;2023-06-14T03:34:07;14.70;60.60
26707;DHT22;14319;49.422;10.934;2023-06-14T03:36:08;14.80;61.40
26707;DHT22;14319;49.422;10.934;2023-06-14T03:38:08;14.70;61.40
26707;DHT22;14319;49.422;10.934;2023-06-14T03:40:09;14.90;61.10
26707;DHT22;14319;49.422;10.934;2023-06-14T03:42:15;14.80;61.30
26707;DHT22;14319;49.422;10.934;2023-06-14T03:44:18;14.80;61.60
26707;DHT22;14319;49.422;10.934;2023-06-14T03:46:19;14.70;62.20
26707;DHT22;14319;49.422;10.934;2023-06-14T03:48:20;14.50;62.10
26707;DHT22;14319;49.422;10.934;2023-06-14T03:50:20;14.30;63.20
26707;DHT22;14319;49.422;10.934;2023-06-14T03:52:21;14.20;63.20
26707;DHT22;14319;49.422;10.934;2023-06-14T03:54:23;14.30;63.20
26707;DHT22;14319;49.422;10.934;2023-06-14T03:56:26;14.40;63.60
26707;DHT22;14319;49.422;10.934;2023-06-14T03:58:27;14.40;63.30
26707;DHT22;14319;49.422;10.934;2023-06-14T04:00:28;14.50;63.50
26707;DHT22;14319;49.422;10.934;2023-06-14T04:02:29;14.50;63.40
26707;DHT22;14319;49.422;10.934;2023-06-14T04:04:30;14.30;63.40
26707;DHT22;14319;49.422;10.934;2023-06-14T04:06:31;14.10;64.80
26707;DHT22;14319;49.422;10.934;2023-06-14T04:08:33;14.00;65.10
26707;DHT22;14319;49.422;10.934;2023-06-14T04:10:34;13.90;66.50
26707;DHT22;14319;49.422;10.934;2023-06-14T04:12:35;13.80;66.50
26707;DHT22;14319;49.422;10.934;2023-06-14T04:14:36;13.80;66.80
26707;DHT22;14319;49.422;10.934;2023-06-14T04:16:37;13.70;65.80
26707;DHT22;14319;49.422;10.934;2023-06-14T04:18:37;13.80;65.90
26707;DHT22;14319;49.422;10.934;2023-06-14T04:20:38;13.80;66.50
26707;DHT22;14319;49.422;10.934;2023-06-14T04:22:40;13.90;66.60
26707;DHT22;14319;49.422;10.934;2023-06-14T04:24:41;13.90;66.00
26707;DHT22;14319;49.422;10.934;2023-06-14T04:26:43;13.90;66.40
26707;DHT22;14319;49.422;10.934;2023-06-14T04:28:50;14.10;65.40
26707;DHT22;14319;49.422;10.934;2023-06-14T04:30:51;14.10;66.80
26707;DHT22;14319;49.422;10.934;2023-06-14T04:32:53;14.00;67.50
26707;DHT22;14319;49.422;10.934;2023-06-14T04:34:56;13.90;66.50
26707;DHT22;14319;49.422;10.934;2023-06-14T04:36:59;14.00;67.80
26707;DHT22;14319;49.422;10.934;2023-06-14T04:39:06;14.10;66.80
26707;DHT22;14319;49.422;10.934;2023-06-14T04:41:06;14.30;66.00
26707;DHT22;14319;49.422;10.934;2023-06-14T04:43:11;14.50;65.20
26707;DHT22;14319;49.422;10.934;2023-06-14T04:45:15;14.60;65.50
26707;DHT22;14319;49.422;10.934;2023-06-14T04:47:16;14.70;64.90
26707;DHT22;14319;49.422;10.934;2023-06-14T04:49:17;14.60;65.50
26707;DHT22;14319;49.422;10.934;2023-06-14T04:51:18;14.80;64.90
26707;DHT22;14319;49.422;10.934;2023-06-14T04:53:22;14.90;64.10
26707;DHT22;14319;49.422;10.934;2023-06-14T04:55:24;15.10;64.50
26707;DHT22;14319;49.422;10.934;2023-06-14T04:57:26;15.00;63.10
26707;DHT22;14319;49.422;10.934;2023-06-14T04:59:30;14.90;64.50
26707;DHT22;14319;49.422;10.934;2023-06-14T05:01:34;15.00;65.20
26707;DHT22;14319;49.422;10.934;2023-06-14T05:03:35;15.10;64.30
26707;DHT22;14319;49.422;10.934;2023-06-14T05:05:35;15.10;64.80
26707;DHT22;14319;49.422;10.934;2023-06-14T05:07:36;15.10;65.00
26707;DHT22;14319;49.422;10.934;2023-06-14T05:09:37;15.30;63.40
26707;DHT22;14319;49.422;10.934;2023-06-14T05:11:37;15.30;64.30
26707;DHT22;14319;49.422;10.934;2023-06-14T05:13:38;15.30;64.50
26707;DHT22;14319;49.422;10.934;2023-06-14T05:15:41;15.30;63.30
26707;DHT22;14319;49.422;10.934;2023-06-14T05:17:42;15.20;64.00
26707;DHT22;14319;49.422;10.934;2023-06-14T05:19:43;15.20;64.50
26707;DHT22;14319;49.422;10.934;2023-06-14T05:21:44;15.30;65.40
26707;DHT22;14319;49.422;10.934;2023-06-14T05:23:45;15.40;64.10
26707;DHT22;14319;49.422;10.934;2023-06-14T05:25:46;15.40;64.10
26707;DHT22;14319;49.422;10.934;2023-06-14T05:27:47;15.50;64.30
26707;DHT22;14319;49.422;10.934;2023-06-14T05:29:47;15.60;63.00
26707;DHT22;14319;49.422;10.934;2023-06-14T05:31:48;15.60;62.80
26707;DHT22;14319;49.422;10.934;2023-06-14T05:33:48;15.60;62.80
26707;DHT22;14319;49.422;10.934;2023-06-14T05:35:49;15.50;64.10
26707;DHT22;14319;49.422;10.934;2023-06-14T05:37:50;15.50;63.30
26707;DHT22;14319;49.422;10.934;2023-06-14T05:39:51;15.60;63.60
26707;DHT22;14319;49.422;10.934;2023-06-14T05:41:52;15.60;64.40
26707;DHT22;14319;49.422;10.934;2023-06-14T05:43:54;15.60;63.20
26707;DHT22;14319;49.422;10.934;2023-06-14T05:45:55;15.70;63.50
26707;DHT22;14319;49.422;10.934;2023-06-14T05:47:55;15.60;63.30
26707;DHT22;14319;49.422;10.934;2023-06-14T05:49:56;15.70;63.10
26707;DHT22;14319;49.422;10.934;2023-06-14T05:51:57;15.60;63.70
26707;DHT22;14319;49.422;10.934;2023-06-14T05:53:57;15.60;63.90
26707;DHT22;14319;49.422;10.934;2023-06-14T05:55:58;15.60;63.30
26707;DHT22;14319;49.422;10.934;2023-06-14T05:57:58;15.60;63.40
26707;DHT22;14319;49.422;10.934;2023-06-14T05:59:59;15.70;63.70
26707;DHT22;14319;49.422;10.934;2023-06-14T06:02:00;15.80;63.80
26707;DHT22;14319;49.422;10.934;2023-06-14T06:04:00;15.90;64.00
26707;DHT22;14319;49.422;10.934;2023-06-14T06:06:01;15.90;64.10
26707;DHT22;14319;49.422;10.934;2023-06-14T06:08:03;15.70;63.80
26707;DHT22;14319;49.422;10.934;2023-06-14T06:10:04;15.90;64.00
26707;DHT22;14319;49.422;10.934;2023-06-14T06:12:07;15.90;65.40
26707;DHT22;14319;49.422;10.934;2023-06-14T06:14:08;16.00;64.60
26707;DHT22;14319;49.422;10.934;2023-06-14T06:16:08;16.20;63.60
26707;DHT22;14319;49.422;10.934;2023-06-14T06:18:09;16.30;63.70
26707;DHT22;14319;49.422;10.934;2023-06-14T06:20:10;16.20;62.90
26707;DHT22;14319;49.422;10.934;2023-06-14T06:22:11;16.20;62.00
26707;DHT22;14319;49.422;10.934;2023-06-14T06:24:12;16.20;62.60
26707;DHT22;14319;49.422;10.934;2023-06-14T06:26:13;16.20;63.00
26707;DHT22;14319;49.422;10.934;2023-06-14T06:28:13;16.30;63.80
26707;DHT22;14319;49.422;10.934;2023-06-14T06:30:14;16.30;63.80
26707;DHT22;14319;49.422;10.934;2023-06-14T06:32:15;16.30;63.10
26707;DHT22;14319;49.422;10.934;2023-06-14T06:34:16;16.30;63.70
26707;DHT22;14319;49.422;10.934;2023-06-14T06:36:16;16.40;63.50
26707;DHT22;14319;49.422;10.934;2023-06-14T06:38:17;16.30;62.40
26707;DHT22;14319;49.422;10.934;2023-06-14T06:40:19;16.40;63.50
26707;DHT22;14319;49.422;10.934;2023-06-14T06:42:19;16.40;64.30
26707;DHT22;14319;49.422;10.934;2023-06-14T06:44:24;16.50;62.90
26707;DHT22;14319;49.422;10.934;2023-06-14T06:46:24;16.50;63.30
26707;DHT22;14319;49.422;10.934;2023-06-14T06:48:25;16.50;64.90
26707;DHT22;14319;49.422;10.934;2023-06-14T06:50:26;16.50;64.70
26707;DHT22;14319;49.422;10.934;2023-06-14T06:52:26;16.50;64.50
26707;DHT22;14319;49.422;10.934;2023-06-14T06:54:27;16.60;62.60
26707;DHT22;14319;49.422;10.934;2023-06-14T06:56:28;16.60;63.70
26707;DHT22;14319;49.422;10.934;2023-06-14T06:58:28;16.60;63.00
26707;DHT22;14319;49.422;10.934;2023-06-14T07:00:29;16.70;63.30
26707;DHT22;14319;49.422;10.934;2023-06-14T07:02:29;16.70;62.80
26707;DHT22;14319;49.422;10.934;2023-06-14T07:04:31;16.80;62.20
26707;DHT22;14319;49.422;10.934;2023-06-14T07:06:31;16.80;62.10
26707;DHT22;14319;49.422;10.934;2023-06-14T07:08:32;16.90;61.10
26707;DHT22;14319;49.422;10.934;2023-06-14T07:10:32;16.90;62.10
26707;DHT22;14319;49.422;10.934;2023-06-14T07:12:33;16.90;63.10
26707;DHT22;14319;49.422;10.934;2023-06-14T07:14:39;17.00;61.90
26707;DHT22;14319;49.422;10.934;2023-06-14T07:16:40;16.90;61.40
26707;DHT22;14319;49.422;10.934;2023-06-14T07:18:41;17.10;62.20
26707;DHT22;14319;49.422;10.934;2023-06-14T07:20:42;17.10;61.40
26707;DHT22;14319;49.422;10.934;2023-06-14T07:22:43;17.10;62.90
26707;DHT22;14319;49.422;10.934;2023-06-14T07:24:44;17.10;61.80
26707;DHT22;14319;49.422;10.934;2023-06-14T07:26:44;17.20;61.30
26707;DHT22;14319;49.422;10.934;2023-06-14T07:28:46;17.20;60.70
26707;DHT22;14319;49.422;10.934;2023-06-14T07:30:47;17.20;61.20
26707;DHT22;14319;49.422;10.934;2023-06-14T07:32:48;17.30;61.40
26707;DHT22;14319;49.422;10.934;2023-06-14T07:34:50;17.40;60.90
26707;DHT22;14319;49.422;10.934;2023-06-14T07:36:50;17.50;60.50
26707;DHT22;14319;49.422;10.934;2023-06-14T07:38:51;17.50;60.10
26707;DHT22;14319;49.422;10.934;2023-06-14T07:40:52;17.50;60.50
26707;DHT22;14319;49.422;10.934;2023-06-14T07:42:52;17.70;60.90
26707;DHT22;14319;49.422;10.934;2023-06-14T07:44:55;17.50;59.20
26707;DHT22;14319;49.422;10.934;2023-06-14T07:46:55;17.60;60.30
26707;DHT22;14319;49.422;10.934;2023-06-14T07:48:58;17.60;58.80
26707;DHT22;14319;49.422;10.934;2023-06-14T07:50:59;17.60;59.30
26707;DHT22;14319;49.422;10.934;2023-06-14T07:53:01;17.70;59.30
26707;DHT22;14319;49.422;10.934;2023-06-14T07:55:02;17.70;59.30
26707;DHT22;14319;49.422;10.934;2023-06-14T07:57:02;17.70;57.90
26707;DHT22;14319;49.422;10.934;2023-06-14T07:59:03;17.70;59.50
26707;DHT22;14319;49.422;10.934;2023-06-14T08:01:04;17.70;59.80
26707;DHT22;14319;49.422;10.934;2023-06-14T08:03:06;17.70;59.30
26707;DHT22;14319;49.422;10.934;2023-06-14T08:05:09;17.70;59.30
26707;DHT22;14319;49.422;10.934;2023-06-14T08:07:11;17.80;60.10
26707;DHT22;14319;49.422;10.934;2023-06-14T08:09:12;17.80;59.10
26707;DHT22;14319;49.422;10.934;2023-06-14T08:11:13;17.90;59.40
26707;DHT22;14319;49.422;10.934;2023-06-14T08:13:13;18.00;58.10
26707;DHT22;14319;49.422;10.934;2023-06-14T08:15:14;18.10;56.90
26707;DHT22;14319;49.422;10.934;2023-06-14T08:17:15;18.20;58.40
26707;DHT22;14319;49.422;10.934;2023-06-14T08:19:16;18.10;57.60
26707;DHT22;14319;49.422;10.934;2023-06-14T08:21:17;18.10;57.50
26707;DHT22;14319;49.422;10.934;2023-06-14T08:23:18;18.30;57.00
26707;DHT22;14319;49.422;10.934;2023-06-14T08:25:21;18.30;55.80
26707;DHT22;14319;49.422;10.934;2023-06-14T08:27:22;18.30;56.10
26707;DHT22;14319;49.422;10.934;2023-06-14T08:29:23;18.40;54.30
26707;DHT22;14319;49.422;10.934;2023-06-14T08:31:23;18.50;55.10
26707;DHT22;14319;49.422;10.934;2023-06-14T08:33:25;18.60;54.90
26707;DHT22;14319;49.422;10.934;2023-06-14T08:35:26;18.70;54.50
26707;DHT22;14319;49.422;10.934;2023-06-14T08:37:26;18.70;54.60
26707;DHT22;14319;49.422;10.934;2023-06-14T08:39:27;18.80;54.20
26707;DHT22;14319;49.422;10.934;2023-06-14T08:41:28;18.80;54.20
26707;DHT22;14319;49.422;10.934;2023-06-14T08:43:29;18.80;54.00
26707;DHT22;14319;49.422;10.934;2023-06-14T08:45:30;18.80;53.60
26707;DHT22;14319;49.422;10.934;2023-06-14T08:47:31;18.90;53.30
26707;DHT22;14319;49.422;10.934;2023-06-14T08:49:37;19.00;52.20
26707;DHT22;14319;49.422;10.934;2023-06-14T08:51:38;19.00;53.00
26707;DHT22;14319;49.422;10.934;2023-06-14T08:53:41;18.80;52.50
26707;DHT22;14319;49.422;10.934;2023-06-14T08:55:42;18.80;53.10
26707;DHT22;14319;49.422;10.934;2023-06-14T08:57:44;18.80;54.30
26707;DHT22;14319;49.422;10.934;2023-06-14T08:59:47;18.90;55.00
26707;DHT22;14319;49.422;10.934;2023-06-14T09:01:54;18.90;53.90
26707;DHT22;14319;49.422;10.934;2023-06-14T09:03:55;19.10;55.00
26707;DHT22;14319;49.422;10.934;2023-06-14T09:05:57;19.10;53.30
26707;DHT22;14319;49.422;10.934;2023-06-14T09:07:59;19.10;53.10
26707;DHT22;14319;49.422;10.934;2023-06-14T09:10:11;19.20;54.00
26707;DHT22;14319;49.422;10.934;2023-06-14T09:12:12;19.30;54.30
26707;DHT22;14319;49.422;10.934;2023-06-14T09:14:13;19.40;52.70
26707;DHT22;14319;49.422;10.934;2023-06-14T09:16:14;19.40;52.30
26707;DHT22;14319;49.422;10.934;2023-06-14T09:18:15;19.40;52.70
26707;DHT22;14319;49.422;10.934;2023-06-14T09:20:15;19.50;52.00
26707;DHT22;14319;49.422;10.934;2023-06-14T09:22:19;19.60;50.00
26707;DHT22;14319;49.422;10.934;2023-06-14T09:24:19;19.70;51.70
26707;DHT22;14319;49.422;10.934;2023-06-14T09:26:20;19.70;50.20
26707;DHT22;14319;49.422;10.934;2023-06-14T09:28:27;19.60;51.30
26707;DHT22;14319;49.422;10.934;2023-06-14T09:30:28;19.70;51.90
26707;DHT22;14319;49.422;10.934;2023-06-14T09:32:29;19.80;52.30
26707;DHT22;14319;49.422;10.934;2023-06-14T09:34:30;19.90;50.70
26707;DHT22;14319;49.422;10.934;2023-06-14T09:36:31;19.90;51.80
26707;DHT22;14319;49.422;10.934;2023-06-14T09:38:34;19.90;51.70
26707;DHT22;14319;49.422;10.934;2023-06-14T09:40:35;20.00;50.70
26707;DHT22;14319;49.422;10.934;2023-06-14T09:42:37;20.10;50.70
26707;DHT22;14319;49.422;10.934;2023-06-14T09:44:38;20.00;50.70
26707;DHT22;14319;49.422;10.934;2023-06-14T09:46:39;20.00;50.40
26707;DHT22;14319;49.422;10.934;2023-06-14T09:48:40;20.10;51.50
26707;DHT22;14319;49.422;10.934;2023-06-14T09:50:46;20.20;50.60
26707;DHT22;14319;49.422;10.934;2023-06-14T09:52:52;20.30;50.80
26707;DHT22;14319;49.422;10.934;2023-06-14T09:54:53;20.30;48.90
26707;DHT22;14319;49.422;10.934;2023-06-14T09:56:55;20.30;49.00
26707;DHT22;14319;49.422;10.934;2023-06-14T09:58:58;20.30;50.30
26707;DHT22;14319;49.422;10.934;2023-06-14T10:00:59;20.30;49.60
26707;DHT22;14319;49.422;10.934;2023-06-14T10:03:03;20.40;48.80
26707;DHT22;14319;49.422;10.934;2023-06-14T10:05:08;20.30;49.30
26707;DHT22;14319;49.422;10.934;2023-06-14T10:07:09;20.50;50.20
26707;DHT22;14319;49.422;10.934;2023-06-14T10:09:10;20.60;49.80
26707;DHT22;14319;49.422;10.934;2023-06-14T10:11:13;20.70;48.40
26707;DHT22;14319;49.422;10.934;2023-06-14T10:13:14;20.80;49.50
26707;DHT22;14319;49.422;10.934;2023-06-14T10:15:23;20.90;48.80
26707;DHT22;14319;49.422;10.934;2023-06-14T10:17:49;20.90;48.90
26707;DHT22;14319;49.422;10.934;2023-06-14T10:19:56;21.00;49.40
26707;DHT22;14319;49.422;10.934;2023-06-14T10:22:11;21.00;49.80
26707;DHT22;14319;49.422;10.934;2023-06-14T10:24:16;21.10;48.00
26707;DHT22;14319;49.422;10.934;2023-06-14T10:26:22;21.10;48.50
26707;DHT22;14319;49.422;10.934;2023-06-14T10:28:23;21.10;49.10
26707;DHT22;14319;49.422;10.934;2023-06-14T10:30:25;21.20;49.90
26707;DHT22;14319;49.422;10.934;2023-06-14T10:32:26;21.30;47.90
26707;DHT22;14319;49.422;10.934;2023-06-14T10:34:30;21.30;46.40
26707;DHT22;14319;49.422;10.934;2023-06-14T10:36:31;21.30;49.20
26707;DHT22;14319;49.422;10.934;2023-06-14T10:38:37;21.30;46.60
26707;DHT22;14319;49.422;10.934;2023-06-14T10:40:38;21.40;47.70
26707;DHT22;14319;49.422;10.934;2023-06-14T10:42:51;21.50;47.90
26707;DHT22;14319;49.422;10.934;2023-06-14T10:44:53;21.60;49.00
26707;DHT22;14319;49.422;10.934;2023-06-14T10:46:58;21.60;47.80
26707;DHT22;14319;49.422;10.934;2023-06-14T10:48:59;21.50;46.60
26707;DHT22;14319;49.422;10.934;2023-06-14T10:51:00;21.40;45.50
26707;DHT22;14319;49.422;10.934;2023-06-14T10:53:21;21.50;47.20
26707;DHT22;14319;49.422;10.934;2023-06-14T10:55:22;21.60;45.10
26707;DHT22;14319;49.422;10.934;2023-06-14T10:57:23;21.60;45.80
26707;DHT22;14319;49.422;10.934;2023-06-14T10:59:24;21.60;47.10
26707;DHT22;14319;49.422;10.934;2023-06-14T11:01:41;21.60;47.10
26707;DHT22;14319;49.422;10.934;2023-06-14T11:03:52;21.60;47.80
26707;DHT22;14319;49.422;10.934;2023-06-14T11:05:56;21.50;47.40
26707;DHT22;14319;49.422;10.934;2023-06-14T11:08:44;21.40;46.90
26707;DHT22;14319;49.422;10.934;2023-06-14T11:10:41;21.40;46.90
26707;DHT22;14319;49.422;10.934;2023-06-14T11:12:47;21.40;49.30
26707;DHT22;14319;49.422;10.934;2023-06-14T11:14:48;21.40;47.60
26707;DHT22;14319;49.422;10.934;2023-06-14T11:16:49;21.40;46.00
26707;DHT22;14319;49.422;10.934;2023-06-14T11:18:50;21.30;45.40
26707;DHT22;14319;49.422;10.934;2023-06-14T11:20:51;21.40;46.60
26707;DHT22;14319;49.422;10.934;2023-06-14T11:22:52;21.50;45.60
26707;DHT22;14319;49.422;10.934;2023-06-14T11:24:53;21.50;45.00
26707;DHT22;14319;49.422;10.934;2023-06-14T11:26:55;21.60;46.80
26707;DHT22;14319;49.422;10.934;2023-06-14T11:28:58;21.70;45.70
26707;DHT22;14319;49.422;10.934;2023-06-14T11:31:00;21.80;46.00
26707;DHT22;14319;49.422;10.934;2023-06-14T11:33:01;22.00;47.10
26707;DHT22;14319;49.422;10.934;2023-06-14T11:35:02;22.10;44.50
26707;DHT22;14319;49.422;10.934;2023-06-14T11:37:05;22.00;45.50
26707;DHT22;14319;49.422;10.934;2023-06-14T11:39:06;22.00;45.20
26707;DHT22;14319;49.422;10.934;2023-06-14T11:41:07;21.90;48.10
26707;DHT22;14319;49.422;10.934;2023-06-14T11:43:08;21.90;46.70
26707;DHT22;14319;49.422;10.934;2023-06-14T11:45:10;21.90;46.60
26707;DHT22;14319;49.422;10.934;2023-06-14T11:47:10;21.90;44.60
26707;DHT22;14319;49.422;10.934;2023-06-14T11:49:11;21.90;46.00
26707;DHT22;14319;49.422;10.934;2023-06-14T11:51:12;22.00;45.40
26707;DHT22;14319;49.422;10.934;2023-06-14T11:53:12;22.00;47.30
26707;DHT22;14319;49.422;10.934;2023-06-14T11:55:14;22.00;44.30
26707;DHT22;14319;49.422;10.934;2023-06-14T11:57:15;22.10;45.10
26707;DHT22;14319;49.422;10.934;2023-06-14T11:59:17;22.10;45.40
26707;DHT22;14319;49.422;10.934;2023-06-14T12:01:18;22.00;43.10
26707;DHT22;14319;49.422;10.934;2023-06-14T12:03:23;21.80;43.00
26707;DHT22;14319;49.422;10.934;2023-06-14T12:05:26;21.90;44.70
26707;DHT22;14319;49.422;10.934;2023-06-14T12:07:26;22.10;44.90
26707;DHT22;14319;49.422;10.934;2023-06-14T12:09:29;22.20;44.20
26707;DHT22;14319;49.422;10.934;2023-06-14T12:11:35;22.20;46.00
26707;DHT22;14319;49.422;10.934;2023-06-14T12:13:38;22.30;45.40
26707;DHT22;14319;49.422;10.934;2023-06-14T12:15:40;22.30;46.00
26707;DHT22;14319;49.422;10.934;2023-06-14T12:17:42;22.30;46.90
26707;DHT22;14319;49.422;10.934;2023-06-14T12:19:44;22.30;45.00
26707;DHT22;14319;49.422;10.934;2023-06-14T12:21:48;22.40;46.20
26707;DHT22;14319;49.422;10.934;2023-06-14T12:23:49;22.50;45.70
26707;DHT22;14319;49.422;10.934;2023-06-14T12:25:51;22.70;44.20
26707;DHT22;14319;49.422;10.934;2023-06-14T12:27:56;22.50;43.10
26707;DHT22;14319;49.422;10.934;2023-06-14T12:30:00;22.50;45.00
26707;DHT22;14319;49.422;10.934;2023-06-14T12:32:01;22.60;44.20
26707;DHT22;14319;49.422;10.934;2023-06-14T12:34:02;22.50;44.60
26707;DHT22;14319;49.422;10.934;2023-06-14T12:36:07;22.60;42.70
26707;DHT22;14319;49.422;10.934;2023-06-14T12:38:08;22.50;43.20
26707;DHT22;14319;49.422;10.934;2023-06-14T12:40:09;22.40;44.50